createdAt,value
2023-01-09T00:02:12.537Z,83.39
2023-01-09T00:04:39.643Z,82.97
2023-01-09T00:07:09.442Z,82.39
2023-01-09T00:09:36.489Z,82.11
2023-01-09T00:12:03.702Z,82.55
2023-01-09T00:14:33.294Z,83.39
2023-01-09T00:17:00.433Z,84.60
2023-01-09T00:19:29.905Z,84.72
2023-01-09T00:21:57.687Z,85.04
2023-01-09T00:24:24.808Z,84.97
2023-01-09T00:26:51.517Z,84.58
2023-01-09T00:29:18.532Z,84.61
2023-01-09T00:31:45.202Z,84.00
2023-01-09T00:34:13.418Z,84.16
2023-01-09T00:36:40.099Z,83.96
2023-01-09T00:39:07.128Z,84.03
2023-01-09T00:41:42.459Z,84.33
2023-01-09T00:44:21.903Z,83.76
2023-01-09T00:46:54.823Z,84.82
2023-01-09T00:49:21.832Z,84.65
2023-01-09T00:51:48.594Z,84.46
2023-01-09T00:54:16.645Z,82.14
2023-01-09T00:56:43.412Z,80.28
2023-01-09T00:59:10.468Z,82.52
2023-01-09T01:01:38.377Z,85.48
2023-01-09T01:04:05.486Z,86.13
2023-01-09T01:06:32.542Z,84.60
2023-01-09T01:08:59.262Z,84.88
2023-01-09T01:11:25.979Z,85.14
2023-01-09T01:13:52.661Z,82.40
2023-01-09T01:16:19.549Z,82.08
2023-01-09T01:18:46.631Z,81.81
2023-01-09T01:21:13.721Z,81.32
2023-01-09T01:23:41.620Z,80.32
2023-01-09T01:26:13.123Z,80.78
2023-01-09T01:28:42.704Z,81.48
2023-01-09T01:31:09.445Z,79.99
2023-01-09T01:33:39.062Z,79.73
2023-01-09T01:36:07.567Z,79.15
2023-01-09T01:38:34.568Z,78.87
2023-01-09T01:41:01.520Z,79.57
2023-01-09T01:43:28.496Z,81.31
2023-01-09T01:45:55.460Z,81.77
2023-01-09T01:48:29.477Z,82.85
2023-01-09T01:51:04.219Z,84.35
2023-01-09T01:53:48.410Z,84.12
2023-01-09T01:56:19.666Z,83.07
2023-01-09T01:58:49.748Z,82.82
2023-01-09T02:01:16.578Z,83.69
2023-01-09T02:03:48.367Z,83.99
2023-01-09T02:06:15.663Z,83.64
2023-01-09T02:08:42.358Z,83.94
2023-01-09T02:11:09.398Z,82.76
2023-01-09T02:13:36.280Z,82.41
2023-01-09T02:16:41.416Z,81.41
2023-01-09T02:19:31.711Z,81.29
2023-01-09T02:22:21.769Z,81.73
2023-01-09T02:25:03.418Z,80.51
2023-01-09T02:28:01.083Z,81.84
2023-01-09T02:30:36.769Z,81.13
2023-01-09T02:33:20.541Z,80.17
2023-01-09T02:36:05.149Z,78.96
2023-01-09T02:38:32.189Z,75.36
2023-01-09T02:41:00.624Z,75.46
2023-01-09T02:43:27.440Z,74.77
2023-01-09T02:45:54.497Z,76.65
2023-01-09T02:48:21.373Z,75.01
2023-01-09T02:50:55.996Z,73.53
2023-01-09T02:53:50.524Z,73.80
2023-01-09T02:56:44.465Z,72.49
2023-01-09T02:59:42.577Z,75.11
2023-01-09T03:02:33.346Z,74.71
2023-01-09T03:05:22.710Z,74.08
2023-01-09T03:07:55.950Z,73.98
2023-01-09T03:10:30.595Z,73.34
2023-01-09T03:12:59.002Z,72.88
2023-01-09T03:15:28.169Z,72.68
2023-01-09T03:17:55.285Z,73.04
2023-01-09T03:20:22.961Z,73.58
2023-01-09T03:23:01.976Z,73.24
2023-01-09T03:25:29.233Z,73.02
2023-01-09T03:27:58.149Z,72.22
2023-01-09T03:30:26.237Z,73.21
2023-01-09T03:32:56.393Z,71.54
2023-01-09T03:35:23.171Z,72.04
2023-01-09T03:37:49.949Z,72.93
2023-01-09T03:40:19.772Z,72.00
2023-01-09T03:42:47.898Z,72.04
2023-01-09T03:45:14.763Z,69.92
2023-01-09T03:47:41.796Z,72.31
2023-01-09T03:50:08.765Z,71.68
2023-01-09T03:52:35.472Z,74.15
2023-01-09T03:55:02.254Z,75.97
2023-01-09T03:57:29.341Z,74.26
2023-01-09T03:59:57.187Z,75.70
2023-01-09T04:02:26.795Z,77.44
2023-01-09T04:04:53.861Z,76.67
2023-01-09T04:07:21.304Z,73.59
2023-01-09T04:09:48.341Z,74.81
2023-01-09T04:12:16.286Z,75.01
2023-01-09T04:14:43.481Z,75.63
2023-01-09T04:17:13.284Z,75.15
2023-01-09T04:19:42.997Z,75.68
2023-01-09T04:22:10.059Z,72.81
2023-01-09T04:24:37.146Z,72.86
2023-01-09T04:27:03.910Z,73.50
2023-01-09T04:29:30.649Z,74.28
2023-01-09T04:31:57.689Z,74.21
2023-01-09T04:34:24.410Z,73.20
2023-01-09T04:36:51.908Z,73.07
2023-01-09T04:39:18.639Z,71.74
2023-01-09T04:41:45.330Z,69.82
2023-01-09T04:44:12.039Z,67.39
2023-01-09T04:46:38.744Z,67.06
2023-01-09T04:49:05.735Z,67.94
2023-01-09T04:51:33.493Z,67.36
2023-01-09T04:54:00.485Z,66.40
2023-01-09T04:56:30.261Z,67.31
2023-01-09T04:58:57.069Z,64.58
2023-01-09T05:01:23.933Z,64.21
2023-01-09T05:03:50.744Z,62.00
2023-01-09T05:06:17.480Z,60.94
2023-01-09T05:08:44.543Z,61.11
2023-01-09T05:11:12.264Z,63.92
2023-01-09T05:13:40.151Z,65.01
2023-01-09T05:16:08.435Z,66.74
2023-01-09T05:18:35.211Z,67.78
2023-01-09T05:21:02.297Z,65.10
2023-01-09T05:23:29.029Z,65.64
2023-01-09T05:25:58.849Z,65.84
2023-01-09T05:28:25.932Z,64.29
2023-01-09T05:30:52.622Z,64.41
2023-01-09T05:33:19.420Z,66.00
2023-01-09T05:35:46.462Z,64.00
2023-01-09T05:38:16.157Z,64.11
2023-01-09T05:40:43.341Z,64.27
2023-01-09T05:43:10.359Z,64.87
2023-01-09T05:45:37.063Z,64.62
2023-01-09T05:48:04.486Z,65.65
2023-01-09T05:50:31.501Z,64.79
2023-01-09T05:52:58.228Z,66.30
2023-01-09T05:55:27.730Z,64.87
2023-01-09T05:57:57.492Z,64.72
2023-01-09T06:00:24.741Z,65.55
2023-01-09T06:02:51.918Z,65.67
2023-01-09T06:05:18.660Z,67.87
2023-01-09T06:07:45.727Z,68.64
2023-01-09T06:10:13.202Z,68.50
2023-01-09T06:12:41.664Z,69.40
2023-01-09T06:15:10.627Z,69.07
2023-01-09T06:17:38.785Z,67.94
2023-01-09T06:20:06.593Z,67.58
2023-01-09T06:22:33.992Z,67.52
2023-01-09T06:25:03.622Z,66.62
2023-01-09T06:27:30.665Z,68.07
2023-01-09T06:29:57.690Z,68.51
2023-01-09T06:32:24.391Z,69.09
2023-01-09T06:34:51.385Z,69.34
2023-01-09T06:37:18.441Z,71.08
2023-01-09T06:39:45.496Z,70.90
2023-01-09T06:42:12.557Z,71.03
2023-01-09T06:44:39.552Z,70.87
2023-01-09T06:47:06.883Z,70.87
2023-01-09T06:49:36.486Z,70.79
2023-01-09T06:52:03.641Z,70.07
2023-01-09T06:54:30.766Z,69.50
2023-01-09T06:56:57.853Z,69.24
2023-01-09T06:59:27.616Z,70.31
2023-01-09T07:01:54.489Z,68.79
2023-01-09T07:04:21.633Z,69.79
2023-01-09T07:06:50.203Z,69.26
2023-01-09T07:09:17.333Z,68.96
2023-01-09T07:11:44.064Z,68.72
2023-01-09T07:14:12.264Z,69.68
2023-01-09T07:16:39.791Z,69.05
2023-01-09T07:19:06.822Z,67.97
2023-01-09T07:21:33.589Z,68.22
2023-01-09T07:24:00.685Z,66.86
2023-01-09T07:26:30.240Z,68.62
2023-01-09T07:28:58.017Z,68.76
2023-01-09T07:31:25.121Z,67.97
2023-01-09T07:33:51.920Z,68.89
2023-01-09T07:36:18.980Z,68.03
2023-01-09T07:38:46.038Z,69.11
2023-01-09T07:41:15.870Z,69.91
2023-01-09T07:43:42.950Z,68.97
2023-01-09T07:46:10.088Z,69.44
2023-01-09T07:48:37.567Z,69.21
2023-01-09T07:51:05.252Z,68.97
2023-01-09T07:53:33.383Z,69.26
2023-01-09T07:56:01.380Z,68.32
2023-01-09T07:58:28.663Z,68.96
2023-01-09T08:00:55.787Z,67.10
2023-01-09T08:03:24.062Z,67.18
2023-01-09T08:05:51.700Z,66.32
2023-01-09T08:08:18.993Z,66.28
2023-01-09T08:10:46.173Z,65.21
2023-01-09T08:13:13.335Z,65.07
2023-01-09T08:15:41.317Z,65.59
2023-01-09T08:18:08.318Z,66.25
2023-01-09T08:20:35.240Z,65.97
2023-01-09T08:23:02.780Z,65.88
2023-01-09T08:25:31.173Z,65.27
2023-01-09T08:27:59.205Z,65.17
2023-01-09T08:30:26.128Z,66.04
2023-01-09T08:32:56.070Z,66.15
2023-01-09T08:35:25.836Z,65.28
2023-01-09T08:37:52.700Z,65.22
2023-01-09T08:40:19.912Z,65.17
2023-01-09T08:42:47.039Z,64.47
2023-01-09T08:45:13.833Z,65.09
2023-01-09T08:47:42.022Z,67.53
2023-01-09T08:50:10.356Z,68.05
2023-01-09T08:52:37.397Z,67.56
2023-01-09T08:55:04.677Z,66.74
2023-01-09T08:57:32.785Z,66.05
2023-01-09T09:00:00.569Z,64.10
2023-01-09T09:02:27.758Z,64.92
2023-01-09T09:04:54.863Z,64.48
2023-01-09T09:07:24.750Z,64.38
2023-01-09T09:09:51.949Z,65.54
2023-01-09T09:12:24.624Z,65.25
2023-01-09T09:14:52.716Z,64.63
2023-01-09T09:17:20.215Z,64.48
2023-01-09T09:19:47.427Z,65.55
2023-01-09T09:22:15.604Z,65.88
2023-01-09T09:24:42.284Z,63.46
2023-01-09T09:27:09.724Z,64.65
2023-01-09T09:29:36.795Z,63.64
2023-01-09T09:32:03.559Z,64.67
2023-01-09T09:34:30.659Z,66.68
2023-01-09T09:36:57.642Z,66.00
2023-01-09T09:39:24.813Z,66.39
2023-01-09T09:42:23.910Z,66.74
2023-01-09T09:45:10.044Z,69.39
2023-01-09T09:47:50.920Z,70.37
2023-01-09T09:50:49.694Z,69.81
2023-01-09T09:53:24.694Z,72.29
2023-01-09T09:55:51.433Z,72.96
2023-01-09T09:58:34.562Z,75.35
2023-01-09T10:01:01.349Z,76.75
2023-01-09T10:03:40.227Z,76.87
2023-01-09T10:06:21.312Z,77.61
2023-01-09T10:09:28.533Z,78.72
2023-01-09T10:12:26.660Z,80.36
2023-01-09T10:14:55.994Z,81.04
2023-01-09T10:17:33.055Z,81.84
2023-01-09T10:20:27.489Z,82.40
2023-01-09T10:23:14.526Z,82.17
2023-01-09T10:26:27.614Z,82.46
2023-01-09T10:29:06.464Z,81.98
2023-01-09T10:31:51.130Z,81.70
2023-01-09T10:34:51.775Z,80.36
2023-01-09T10:37:37.044Z,79.93
2023-01-09T10:40:30.301Z,79.76
2023-01-09T10:43:06.018Z,80.05
2023-01-09T10:45:41.897Z,79.64
2023-01-09T10:48:25.693Z,80.15
2023-01-09T10:50:52.848Z,80.66
2023-01-09T10:53:27.127Z,80.09
2023-01-09T10:55:55.949Z,80.49
2023-01-09T10:58:22.791Z,79.98
2023-01-09T11:00:51.060Z,80.06
2023-01-09T11:03:21.570Z,80.62
2023-01-09T11:05:54.258Z,80.58
2023-01-09T11:08:37.148Z,79.96
2023-01-09T11:11:03.885Z,79.80
2023-01-09T11:13:31.981Z,80.22
2023-01-09T11:15:59.493Z,79.36
2023-01-09T11:18:26.355Z,78.81
2023-01-09T11:20:53.034Z,79.22
2023-01-09T11:23:35.234Z,78.25
2023-01-09T11:26:02.248Z,78.36
2023-01-09T11:28:31.975Z,79.23
2023-01-09T11:31:00.198Z,80.45
2023-01-09T11:33:31.829Z,78.42
2023-01-09T11:36:11.177Z,78.42
2023-01-09T11:38:49.434Z,78.94
2023-01-09T11:41:19.602Z,79.20
2023-01-09T11:43:47.842Z,78.52
2023-01-09T11:46:36.870Z,78.02
2023-01-09T11:49:24.146Z,77.77
2023-01-09T11:52:26.551Z,77.17
2023-01-09T11:54:59.242Z,76.49
2023-01-09T11:57:26.060Z,76.27
2023-01-09T11:59:52.763Z,74.95
2023-01-09T12:02:53.864Z,75.77
2023-01-09T12:05:28.307Z,74.97
2023-01-09T12:08:10.556Z,74.75
2023-01-09T12:10:43.036Z,75.07
2023-01-09T12:13:45.026Z,74.94
2023-01-09T12:16:30.586Z,76.17
2023-01-09T12:19:18.605Z,76.49
2023-01-09T12:22:19.601Z,75.85
2023-01-09T12:24:46.120Z,76.00
2023-01-09T12:27:34.175Z,76.92
2023-01-09T12:30:26.345Z,77.14
2023-01-09T12:33:17.934Z,77.53
2023-01-09T12:35:47.501Z,77.95
2023-01-09T12:38:28.268Z,78.64
2023-01-09T12:41:14.121Z,78.21
2023-01-09T12:43:46.836Z,78.35
2023-01-09T12:46:24.443Z,77.62
2023-01-09T12:48:54.107Z,78.26
2023-01-09T12:51:43.579Z,77.97
2023-01-09T12:54:29.537Z,77.36
2023-01-09T12:57:00.351Z,76.84
2023-01-09T12:59:35.345Z,77.63
2023-01-09T13:03:00.603Z,77.41
2023-01-09T13:05:41.684Z,78.26
2023-01-09T13:08:12.730Z,77.10
2023-01-09T13:10:40.750Z,76.17
2023-01-09T13:13:47.220Z,74.57
2023-01-09T13:16:17.984Z,75.68
2023-01-09T13:19:15.355Z,75.24
2023-01-09T13:21:43.561Z,75.22
2023-01-09T13:24:31.555Z,75.11
2023-01-09T13:27:12.491Z,76.07
2023-01-09T13:29:41.653Z,78.62
2023-01-09T13:32:51.402Z,79.06
2023-01-09T13:35:24.615Z,80.80
2023-01-09T13:37:54.706Z,81.92
2023-01-09T13:40:22.168Z,83.28
2023-01-09T13:43:08.826Z,83.60
2023-01-09T13:45:37.210Z,84.26
2023-01-09T13:48:17.068Z,84.70
2023-01-09T13:50:45.074Z,84.93
2023-01-09T13:53:18.106Z,83.94
2023-01-09T13:56:07.515Z,82.80
2023-01-09T13:58:37.221Z,82.58
2023-01-09T14:01:05.588Z,82.92
2023-01-09T14:03:39.307Z,81.76
2023-01-09T14:06:11.442Z,80.76
2023-01-09T14:08:40.900Z,81.00
2023-01-09T14:11:20.918Z,81.80
2023-01-09T14:13:51.882Z,82.79
2023-01-09T14:16:21.462Z,82.35
2023-01-09T14:19:00.687Z,83.34
2023-01-09T14:21:27.518Z,83.35
2023-01-09T14:24:05.235Z,81.83
2023-01-09T14:26:45.986Z,80.41
2023-01-09T14:29:41.128Z,80.27
2023-01-09T14:32:35.311Z,80.94
2023-01-09T14:35:13.683Z,79.32
2023-01-09T14:37:41.081Z,78.94
2023-01-09T14:40:20.028Z,79.55
2023-01-09T14:42:46.938Z,78.56
2023-01-09T14:45:22.343Z,78.90
2023-01-09T14:47:58.521Z,78.90
2023-01-09T14:50:53.031Z,77.68
2023-01-09T14:53:27.864Z,79.53
2023-01-09T14:56:02.536Z,79.34
2023-01-09T14:58:32.793Z,79.21
2023-01-09T15:01:03.097Z,78.53
2023-01-09T15:03:42.910Z,78.72
2023-01-09T15:06:13.398Z,76.98
2023-01-09T15:08:44.250Z,78.10
2023-01-09T15:11:12.509Z,77.65
2023-01-09T15:13:44.250Z,78.74
2023-01-09T15:16:22.015Z,77.24
2023-01-09T15:18:51.075Z,77.28
2023-01-09T15:21:19.947Z,76.32
2023-01-09T15:23:46.793Z,76.29
2023-01-09T15:26:27.336Z,78.72
2023-01-09T15:29:00.099Z,79.34
2023-01-09T15:31:26.838Z,79.25
2023-01-09T15:33:56.577Z,80.55
2023-01-09T15:36:24.978Z,79.64
2023-01-09T15:38:51.824Z,79.44
2023-01-09T15:41:23.459Z,80.55
2023-01-09T15:43:50.264Z,80.62
2023-01-09T15:46:17.012Z,80.14
2023-01-09T15:48:44.787Z,79.44
2023-01-09T15:51:14.440Z,76.40
2023-01-09T15:53:41.483Z,75.82
2023-01-09T15:56:26.841Z,74.13
2023-01-09T15:58:57.766Z,76.13
2023-01-09T16:01:34.529Z,78.38
2023-01-09T16:04:30.242Z,79.81
2023-01-09T16:06:58.363Z,79.91
2023-01-09T16:09:28.968Z,80.02
2023-01-09T16:11:59.954Z,80.48
2023-01-09T16:14:37.370Z,81.21
2023-01-09T16:17:07.306Z,81.24
2023-01-09T16:19:50.030Z,79.83
2023-01-09T16:22:29.866Z,79.71
2023-01-09T16:25:01.561Z,79.24
2023-01-09T16:27:32.190Z,78.46
2023-01-09T16:30:28.342Z,78.72
2023-01-09T16:32:55.011Z,78.25
2023-01-09T16:35:22.347Z,78.52
2023-01-09T16:37:51.892Z,79.24
2023-01-09T16:40:18.519Z,78.04
2023-01-09T16:42:45.289Z,78.12
2023-01-09T16:45:13.524Z,77.71
2023-01-09T16:47:41.365Z,77.27
2023-01-09T16:50:12.128Z,77.03
2023-01-09T16:52:39.032Z,76.86
2023-01-09T16:55:09.101Z,76.64
2023-01-09T16:57:35.828Z,77.57
2023-01-09T17:00:05.616Z,77.76
2023-01-09T17:02:38.145Z,76.41
2023-01-09T17:05:06.286Z,77.32
2023-01-09T17:07:33.001Z,77.34
2023-01-09T17:10:00.702Z,78.18
2023-01-09T17:12:28.149Z,76.17
2023-01-09T17:14:57.898Z,76.03
2023-01-09T17:17:24.627Z,76.60
2023-01-09T17:19:51.293Z,76.47
2023-01-09T17:22:18.045Z,75.79
2023-01-09T17:24:44.864Z,76.77
2023-01-09T17:27:20.913Z,76.93
2023-01-09T17:29:48.302Z,78.16
2023-01-09T17:32:16.157Z,77.70
2023-01-09T17:34:43.154Z,77.95
2023-01-09T17:37:19.204Z,77.19
2023-01-09T17:39:48.992Z,77.79
2023-01-09T17:42:27.049Z,78.50
2023-01-09T17:44:53.908Z,79.37
2023-01-09T17:47:21.192Z,79.56
2023-01-09T17:49:50.358Z,78.68
2023-01-09T17:52:17.556Z,78.39
2023-01-09T17:54:45.530Z,78.40
2023-01-09T17:57:15.987Z,79.08
2023-01-09T17:59:43.569Z,77.45
2023-01-09T18:02:22.745Z,77.97
2023-01-09T18:04:52.401Z,78.96
2023-01-09T18:07:19.137Z,79.23
2023-01-09T18:09:56.773Z,79.24
2023-01-09T18:12:23.885Z,79.69
2023-01-09T18:14:52.322Z,79.93
2023-01-09T18:17:22.121Z,80.00
2023-01-09T18:19:48.846Z,80.26
2023-01-09T18:22:17.914Z,80.42
2023-01-09T18:24:46.298Z,79.45
2023-01-09T18:27:14.705Z,77.75
2023-01-09T18:29:41.380Z,78.50
2023-01-09T18:32:08.577Z,79.21
2023-01-09T18:34:37.411Z,79.50
2023-01-09T18:37:05.285Z,79.12
2023-01-09T18:39:33.061Z,79.01
2023-01-09T18:41:59.795Z,78.84
2023-01-09T18:44:26.529Z,77.11
2023-01-09T18:46:54.296Z,77.03
2023-01-09T18:49:21.376Z,77.32
2023-01-09T18:51:49.433Z,78.25
2023-01-09T18:54:16.635Z,78.55
2023-01-09T18:56:43.876Z,78.71
2023-01-09T18:59:13.401Z,78.41
2023-01-09T19:01:41.442Z,79.09
2023-01-09T19:04:08.867Z,78.54
2023-01-09T19:06:36.928Z,77.74
2023-01-09T19:09:04.270Z,78.59
2023-01-09T19:11:31.091Z,78.85
2023-01-09T19:13:57.828Z,79.99
2023-01-09T19:16:26.034Z,79.73
2023-01-09T19:18:56.477Z,80.11
2023-01-09T19:21:23.641Z,81.21
2023-01-09T19:23:50.408Z,80.23
2023-01-09T19:26:24.421Z,80.55
2023-01-09T19:28:52.769Z,80.60
2023-01-09T19:31:20.844Z,81.05
2023-01-09T19:33:48.149Z,81.82
2023-01-09T19:36:17.650Z,80.09
2023-01-09T19:38:44.418Z,79.85
2023-01-09T19:41:20.174Z,80.46
2023-01-09T19:43:49.951Z,80.05
2023-01-09T19:46:18.698Z,79.68
2023-01-09T19:48:48.565Z,78.87
2023-01-09T19:51:16.634Z,79.66
2023-01-09T19:53:51.041Z,80.29
2023-01-09T19:56:22.999Z,80.99
2023-01-09T19:58:55.443Z,81.87
2023-01-09T20:01:25.526Z,82.17
2023-01-09T20:03:52.491Z,81.83
2023-01-09T20:06:21.241Z,82.14
2023-01-09T20:08:48.297Z,82.24
2023-01-09T20:11:16.426Z,81.41
2023-01-09T20:13:44.546Z,82.51
2023-01-09T20:16:15.919Z,82.05
2023-01-09T20:18:45.588Z,81.44
2023-01-09T20:21:18.387Z,81.31
2023-01-09T20:23:45.181Z,82.42
2023-01-09T20:26:12.088Z,82.26
2023-01-09T20:28:39.778Z,82.77
2023-01-09T20:31:14.503Z,83.59
2023-01-09T20:33:45.588Z,83.94
2023-01-09T20:36:13.455Z,82.44
2023-01-09T20:38:46.686Z,82.77
2023-01-09T20:41:17.519Z,82.12
2023-01-09T20:43:45.903Z,82.42
2023-01-09T20:46:12.693Z,82.31
2023-01-09T20:48:40.098Z,82.80
2023-01-09T20:51:07.938Z,83.66
2023-01-09T20:53:35.675Z,82.07
2023-01-09T20:56:04.612Z,82.05
2023-01-09T20:58:33.784Z,79.73
2023-01-09T21:01:10.934Z,80.16
2023-01-09T21:03:41.154Z,78.75
2023-01-09T21:06:27.583Z,79.88
2023-01-09T21:08:54.421Z,80.80
2023-01-09T21:11:25.292Z,82.76
2023-01-09T21:13:52.220Z,84.12
2023-01-09T21:16:21.657Z,84.33
2023-01-09T21:18:48.775Z,84.17
2023-01-09T21:21:17.521Z,83.78
2023-01-09T21:24:23.483Z,85.15
2023-01-09T21:26:51.214Z,83.76
2023-01-09T21:29:18.292Z,83.71
2023-01-09T21:31:46.196Z,83.49
2023-01-09T21:34:13.659Z,82.44
2023-01-09T21:36:41.039Z,82.93
2023-01-09T21:39:10.591Z,83.23
2023-01-09T21:41:45.265Z,82.92
2023-01-09T21:44:13.442Z,81.84
2023-01-09T21:46:40.182Z,83.13
2023-01-09T21:49:08.240Z,83.86
2023-01-09T21:51:37.054Z,82.80
2023-01-09T21:54:11.069Z,81.80
2023-01-09T21:56:42.209Z,80.67
2023-01-09T21:59:09.165Z,79.64
2023-01-09T22:01:44.780Z,80.33
2023-01-09T22:04:16.951Z,78.84
2023-01-09T22:06:44.456Z,79.38
2023-01-09T22:09:11.597Z,77.88
2023-01-09T22:11:45.951Z,78.12
2023-01-09T22:14:17.515Z,78.82
2023-01-09T22:16:48.241Z,77.95
2023-01-09T22:19:15.316Z,78.28
2023-01-09T22:21:42.424Z,79.17
2023-01-09T22:24:12.049Z,78.92
2023-01-09T22:26:38.744Z,77.24
2023-01-09T22:29:05.499Z,74.83
2023-01-09T22:31:35.937Z,76.58
2023-01-09T22:34:10.183Z,76.63
2023-01-09T22:36:39.629Z,77.02
2023-01-09T22:39:06.535Z,78.01
2023-01-09T22:41:36.707Z,77.64
2023-01-09T22:44:04.490Z,78.71
2023-01-09T22:46:33.470Z,78.66
2023-01-09T22:49:01.506Z,78.01
2023-01-09T22:51:35.265Z,78.94
2023-01-09T22:54:05.723Z,80.12
2023-01-09T22:56:33.239Z,80.64
2023-01-09T22:59:02.760Z,80.01
2023-01-09T23:01:29.484Z,79.94
2023-01-09T23:03:56.153Z,81.12
2023-01-09T23:06:24.602Z,83.23
2023-01-09T23:08:54.486Z,82.75
2023-01-09T23:11:27.174Z,83.50
2023-01-09T23:13:53.954Z,83.09
2023-01-09T23:16:23.956Z,82.77
2023-01-09T23:18:51.701Z,83.12
2023-01-09T23:21:21.267Z,81.94
2023-01-09T23:23:48.091Z,82.36
2023-01-09T23:26:14.812Z,83.28
2023-01-09T23:28:55.575Z,83.40
2023-01-09T23:31:23.706Z,82.94
2023-01-09T23:33:50.369Z,82.13
2023-01-09T23:36:17.344Z,82.11
2023-01-09T23:38:45.943Z,81.87
2023-01-09T23:41:13.904Z,81.09
2023-01-09T23:43:43.936Z,81.02
2023-01-09T23:46:11.159Z,79.41
2023-01-09T23:48:38.090Z,78.60
2023-01-09T23:51:05.421Z,80.04
2023-01-09T23:53:34.810Z,77.74
2023-01-09T23:56:04.429Z,79.28
2023-01-09T23:58:31.755Z,77.97
